createdAt,value
2018-09-29T00:01:03.271Z,13.33
2018-09-29T00:03:32.111Z,10.87
2018-09-29T00:06:00.987Z,10.10
2018-09-29T00:08:29.719Z,8.70
2018-09-29T00:10:58.445Z,11.20
2018-09-29T00:13:27.279Z,8.47
2018-09-29T00:15:56.228Z,11.83
2018-09-29T00:18:25.038Z,12.53
2018-09-29T00:20:54.030Z,8.90
2018-09-29T00:23:22.838Z,10.17
2018-09-29T00:25:51.678Z,10.63
2018-09-29T00:28:20.952Z,9.83
2018-09-29T00:30:49.810Z,11.80
2018-09-29T00:33:18.770Z,11.70
2018-09-29T00:35:47.694Z,8.10
2018-09-29T00:38:16.485Z,10.53
2018-09-29T00:40:45.547Z,14.23
2018-09-29T00:43:14.318Z,9.20
2018-09-29T00:45:43.261Z,11.53
2018-09-29T00:48:12.324Z,9.83
2018-09-29T00:50:41.209Z,8.20
2018-09-29T00:53:10.014Z,9.17
2018-09-29T00:55:38.942Z,9.67
2018-09-29T00:58:07.984Z,11.17
2018-09-29T01:00:36.804Z,12.97
2018-09-29T01:03:05.791Z,9.53
2018-09-29T01:05:34.584Z,12.57
2018-09-29T01:08:03.287Z,8.93
2018-09-29T01:10:32.064Z,7.83
2018-09-29T01:13:00.870Z,11.80
2018-09-29T01:15:29.649Z,13.73
2018-09-29T01:17:58.539Z,13.37
2018-09-29T01:20:27.353Z,9.77
2018-09-29T01:22:56.092Z,10.83
2018-09-29T01:25:24.997Z,8.37
2018-09-29T01:27:53.780Z,11.23
2018-09-29T01:30:22.519Z,12.57
2018-09-29T01:32:51.360Z,11.37
2018-09-29T01:35:21.187Z,11.57
2018-09-29T01:37:50.139Z,10.03
2018-09-29T01:40:18.895Z,10.70
2018-09-29T01:42:47.933Z,9.30
2018-09-29T01:45:16.681Z,8.70
2018-09-29T01:47:45.424Z,6.60
2018-09-29T01:50:14.251Z,9.47
2018-09-29T01:52:43.095Z,9.47
2018-09-29T01:55:11.843Z,12.87
2018-09-29T01:57:40.593Z,9.30
2018-09-29T02:00:09.389Z,9.43
2018-09-29T02:02:38.227Z,10.67
2018-09-29T02:05:07.067Z,15.27
2018-09-29T02:07:35.871Z,14.80
2018-09-29T02:10:04.828Z,6.57
2018-09-29T02:12:33.699Z,8.43
2018-09-29T02:15:02.580Z,10.67
2018-09-29T02:17:31.308Z,8.13
2018-09-29T02:20:00.201Z,10.77
2018-09-29T02:22:28.947Z,9.37
2018-09-29T02:24:57.729Z,9.20
2018-09-29T02:27:26.491Z,12.00
2018-09-29T02:29:55.306Z,11.93
2018-09-29T02:32:24.063Z,11.97
2018-09-29T02:34:52.800Z,14.03
2018-09-29T02:37:21.589Z,13.30
2018-09-29T02:39:50.479Z,10.40
2018-09-29T02:42:19.457Z,11.17
2018-09-29T02:44:48.223Z,10.77
2018-09-29T02:47:17.042Z,11.57
2018-09-29T02:49:45.804Z,14.43
2018-09-29T02:52:14.533Z,10.13
2018-09-29T02:54:43.298Z,14.57
2018-09-29T02:57:11.976Z,11.50
2018-09-29T02:59:41.019Z,11.03
2018-09-29T03:02:09.772Z,11.10
2018-09-29T03:04:38.839Z,11.10
2018-09-29T03:07:07.738Z,11.40
2018-09-29T03:09:36.474Z,11.07
2018-09-29T03:12:05.209Z,11.10
2018-09-29T03:14:34.099Z,5.80
2018-09-29T03:17:03.699Z,12.73
2018-09-29T03:19:32.789Z,13.33
2018-09-29T03:22:01.532Z,8.33
2018-09-29T03:24:30.529Z,10.63
2018-09-29T03:26:59.335Z,9.67
2018-09-29T03:29:28.136Z,10.77
2018-09-29T03:31:56.972Z,10.77
2018-09-29T03:34:25.646Z,12.57
2018-09-29T03:36:54.318Z,11.77
2018-09-29T03:39:23.073Z,11.17
2018-09-29T03:41:51.839Z,7.53
2018-09-29T03:44:20.594Z,10.73
2018-09-29T03:46:49.390Z,11.30
2018-09-29T03:49:18.169Z,15.07
2018-09-29T03:51:47.069Z,14.73
2018-09-29T03:54:15.837Z,15.40
2018-09-29T03:56:44.619Z,14.73
2018-09-29T03:59:13.407Z,8.77
2018-09-29T04:01:42.347Z,11.90
2018-09-29T04:04:11.095Z,11.87
2018-09-29T04:06:39.866Z,9.83
2018-09-29T04:09:08.601Z,10.83
2018-09-29T04:11:37.381Z,11.67
2018-09-29T04:14:06.385Z,9.30
2018-09-29T04:16:35.301Z,9.50
2018-09-29T04:19:04.110Z,9.67
2018-09-29T04:21:37.230Z,12.03
2018-09-29T04:24:05.970Z,10.87
2018-09-29T04:26:34.819Z,7.97
2018-09-29T04:29:03.579Z,8.00
2018-09-29T04:31:32.348Z,6.63
2018-09-29T04:34:01.137Z,7.73
2018-09-29T04:36:29.954Z,12.80
2018-09-29T04:38:58.768Z,9.90
2018-09-29T04:41:27.554Z,9.60
2018-09-29T04:43:56.307Z,9.03
2018-09-29T04:46:25.111Z,14.87
2018-09-29T04:48:53.882Z,8.60
2018-09-29T04:51:22.608Z,9.93
2018-09-29T04:53:51.406Z,12.43
2018-09-29T04:56:20.193Z,6.67
2018-09-29T04:58:49.113Z,10.23
2018-09-29T05:01:17.869Z,9.23
2018-09-29T05:03:46.684Z,9.67
2018-09-29T05:06:15.628Z,10.73
2018-09-29T05:08:44.403Z,8.07
2018-09-29T05:11:13.214Z,5.60
2018-09-29T05:13:41.938Z,6.53
2018-09-29T05:16:10.841Z,11.67
2018-09-29T05:18:39.614Z,11.60
2018-09-29T05:21:08.527Z,16.17
2018-09-29T05:23:37.868Z,15.07
2018-09-29T05:26:06.921Z,20.37
2018-09-29T05:28:35.621Z,18.73
2018-09-29T05:31:11.022Z,16.87
2018-09-29T05:33:40.050Z,11.73
2018-09-29T05:36:09.023Z,23.43
2018-09-29T05:38:37.827Z,11.30
2018-09-29T05:41:06.625Z,12.23
2018-09-29T05:43:35.390Z,14.57
2018-09-29T05:46:04.417Z,13.70
2018-09-29T05:48:33.220Z,12.37
2018-09-29T05:51:02.009Z,20.60
2018-09-29T05:53:30.762Z,13.57
2018-09-29T05:56:06.264Z,13.03
2018-09-29T05:58:35.031Z,11.40
2018-09-29T06:01:03.940Z,10.23
2018-09-29T06:03:32.706Z,12.47
2018-09-29T06:06:01.460Z,10.57
2018-09-29T06:08:30.293Z,12.53
2018-09-29T06:10:59.240Z,11.20
2018-09-29T06:13:27.988Z,12.77
2018-09-29T06:15:56.754Z,10.17
2018-09-29T06:18:25.789Z,9.87
2018-09-29T06:20:54.625Z,10.67
2018-09-29T06:23:23.374Z,12.03
2018-09-29T06:25:52.323Z,13.00
2018-09-29T06:28:21.199Z,7.27
2018-09-29T06:30:49.947Z,14.10
2018-09-29T06:33:18.844Z,11.00
2018-09-29T06:35:47.648Z,11.83
2018-09-29T06:38:16.366Z,13.97
2018-09-29T06:40:45.194Z,15.27
2018-09-29T06:43:14.044Z,9.93
2018-09-29T06:45:42.888Z,12.13
2018-09-29T06:48:11.712Z,17.03
2018-09-29T06:50:40.482Z,10.10
2018-09-29T06:53:09.218Z,10.50
2018-09-29T06:55:37.940Z,10.47
2018-09-29T06:58:06.905Z,8.03
2018-09-29T07:00:35.800Z,9.40
2018-09-29T07:03:04.599Z,9.50
2018-09-29T07:05:33.647Z,13.00
2018-09-29T07:08:02.459Z,11.23
2018-09-29T07:10:31.323Z,9.00
2018-09-29T07:13:00.248Z,10.93
2018-09-29T07:15:29.062Z,12.23
2018-09-29T07:17:57.871Z,12.40
2018-09-29T07:20:26.648Z,12.70
2018-09-29T07:22:55.444Z,13.50
2018-09-29T07:25:24.292Z,12.57
2018-09-29T07:27:53.043Z,11.77
2018-09-29T07:30:21.808Z,10.83
2018-09-29T07:32:50.659Z,12.37
2018-09-29T07:35:19.535Z,13.37
2018-09-29T07:37:48.371Z,14.57
2018-09-29T07:40:17.359Z,13.57
2018-09-29T07:42:46.175Z,14.90
2018-09-29T07:45:15.018Z,15.20
2018-09-29T07:47:43.844Z,19.23
2018-09-29T07:50:12.588Z,15.67
2018-09-29T07:52:41.370Z,17.03
2018-09-29T07:55:10.198Z,14.07
2018-09-29T07:57:38.971Z,15.77
2018-09-29T08:00:07.946Z,13.93
2018-09-29T08:02:36.784Z,17.23
2018-09-29T08:05:05.705Z,15.77
2018-09-29T08:07:34.441Z,13.90
2018-09-29T08:10:03.358Z,15.63
2018-09-29T08:12:32.268Z,16.67
2018-09-29T08:15:01.136Z,17.80
2018-09-29T08:17:29.970Z,16.17
2018-09-29T08:19:58.809Z,14.80
2018-09-29T08:22:27.614Z,16.00
2018-09-29T08:24:56.557Z,16.97
2018-09-29T08:27:25.491Z,13.83
2018-09-29T08:29:54.667Z,16.20
2018-09-29T08:32:23.847Z,13.23
2018-09-29T08:34:52.727Z,14.37
2018-09-29T08:37:21.779Z,15.13
2018-09-29T08:39:50.560Z,14.73
2018-09-29T08:42:19.336Z,15.50
2018-09-29T08:44:48.146Z,11.90
2018-09-29T08:47:16.880Z,13.10
2018-09-29T08:49:45.654Z,11.70
2018-09-29T08:52:14.509Z,15.30
2018-09-29T08:54:43.487Z,11.97
2018-09-29T08:57:12.294Z,13.97
2018-09-29T08:59:41.346Z,7.97
2018-09-29T09:02:10.373Z,10.53
2018-09-29T09:04:39.388Z,9.53
2018-09-29T09:07:08.372Z,8.67
2018-09-29T09:09:37.113Z,12.67
2018-09-29T09:12:05.990Z,12.07
2018-09-29T09:14:34.748Z,11.10
2018-09-29T09:17:03.620Z,12.90
2018-09-29T09:19:32.597Z,7.93
2018-09-29T09:22:01.638Z,9.10
2018-09-29T09:24:31.335Z,8.90
2018-09-29T09:27:00.200Z,10.87
2018-09-29T09:29:29.092Z,8.40
2018-09-29T09:31:57.869Z,13.10
2018-09-29T09:34:26.700Z,9.93
2018-09-29T09:36:55.650Z,6.93
2018-09-29T09:39:24.593Z,6.37
2018-09-29T09:41:53.346Z,9.37
2018-09-29T09:44:22.311Z,8.57
2018-09-29T09:46:51.264Z,9.67
2018-09-29T09:49:20.206Z,7.50
2018-09-29T09:51:48.982Z,8.53
2018-09-29T09:54:17.773Z,4.73
2018-09-29T09:56:46.568Z,8.70
2018-09-29T09:59:15.427Z,7.03
2018-09-29T10:01:50.029Z,7.83
2018-09-29T10:04:18.921Z,6.30
2018-09-29T10:06:47.682Z,6.93
2018-09-29T10:09:16.540Z,8.93
2018-09-29T10:11:45.550Z,8.60
2018-09-29T10:14:14.365Z,10.13
2018-09-29T10:16:43.168Z,6.57
2018-09-29T10:19:12.014Z,7.33
2018-09-29T10:21:40.984Z,6.47
2018-09-29T10:24:09.946Z,7.03
2018-09-29T10:26:38.837Z,7.27
2018-09-29T10:29:07.733Z,8.13
2018-09-29T10:31:36.546Z,9.13
2018-09-29T10:34:05.506Z,7.90
2018-09-29T10:36:34.369Z,6.07
2018-09-29T10:39:03.700Z,9.93
2018-09-29T10:41:32.486Z,7.73
2018-09-29T10:44:01.519Z,7.57
2018-09-29T10:46:30.343Z,5.27
2018-09-29T10:48:59.127Z,6.10
2018-09-29T10:51:27.994Z,6.33
2018-09-29T10:53:56.865Z,6.30
2018-09-29T10:56:25.911Z,4.93
2018-09-29T10:58:54.713Z,6.47
2018-09-29T11:01:23.509Z,8.33
2018-09-29T11:03:52.434Z,4.20
2018-09-29T11:06:21.377Z,6.63
2018-09-29T11:08:50.166Z,6.97
2018-09-29T11:11:19.119Z,5.73
2018-09-29T11:13:48.094Z,7.87
2018-09-29T11:16:17.037Z,8.23
2018-09-29T11:18:45.841Z,7.60
2018-09-29T11:21:14.889Z,6.30
2018-09-29T11:23:43.645Z,9.73
2018-09-29T11:26:12.451Z,5.30
2018-09-29T11:28:41.244Z,7.85
2018-09-29T11:31:10.093Z,5.03
2018-09-29T11:33:38.832Z,6.30
2018-09-29T11:36:07.670Z,7.33
2018-09-29T11:38:36.408Z,6.45
2018-09-29T11:41:05.302Z,5.03
2018-09-29T11:43:34.198Z,5.05
2018-09-29T11:46:03.136Z,3.93
2018-09-29T11:48:31.953Z,8.08
2018-09-29T11:51:00.769Z,6.37
2018-09-29T11:53:29.639Z,8.75
2018-09-29T11:55:58.709Z,6.47
2018-09-29T11:58:27.493Z,6.95
2018-09-29T12:00:56.346Z,6.55
2018-09-29T12:03:25.272Z,6.17
2018-09-29T12:05:54.130Z,5.92
2018-09-29T12:08:22.852Z,5.78
2018-09-29T12:10:51.788Z,6.45
2018-09-29T12:13:20.689Z,4.67
2018-09-29T12:15:49.468Z,9.93
2018-09-29T12:18:18.307Z,5.55
2018-09-29T12:20:47.391Z,6.47
2018-09-29T12:23:16.191Z,6.42
2018-09-29T12:25:45.044Z,4.70
2018-09-29T12:28:13.979Z,6.45
2018-09-29T12:30:42.884Z,5.65
2018-09-29T12:33:11.742Z,5.47
2018-09-29T12:35:40.466Z,4.55
2018-09-29T12:38:09.422Z,6.03
2018-09-29T12:40:38.202Z,6.55
2018-09-29T12:43:07.046Z,6.58
2018-09-29T12:45:36.009Z,6.22
2018-09-29T12:48:04.843Z,3.62
2018-09-29T12:50:33.686Z,4.72
2018-09-29T12:53:02.620Z,4.65
2018-09-29T12:55:32.000Z,5.87
2018-09-29T12:58:00.845Z,7.58
2018-09-29T13:00:29.695Z,6.25
2018-09-29T13:02:58.700Z,7.15
2018-09-29T13:05:27.636Z,4.12
2018-09-29T13:07:56.743Z,6.90
2018-09-29T13:10:25.683Z,4.03
2018-09-29T13:12:54.799Z,4.35
2018-09-29T13:15:23.626Z,4.53
2018-09-29T13:17:52.573Z,3.37
2018-09-29T13:20:21.357Z,6.70
2018-09-29T13:22:50.203Z,3.62
2018-09-29T13:25:18.988Z,6.72
2018-09-29T13:27:47.868Z,6.53
2018-09-29T13:30:16.863Z,5.35
2018-09-29T13:32:45.870Z,3.92
2018-09-29T13:35:14.626Z,2.95
2018-09-29T13:37:43.426Z,3.50
2018-09-29T13:40:12.307Z,3.30
2018-09-29T13:42:41.226Z,4.70
2018-09-29T13:45:10.034Z,5.95
2018-09-29T13:47:39.161Z,4.75
2018-09-29T13:50:08.126Z,4.60
2018-09-29T13:52:37.139Z,4.83
2018-09-29T13:55:06.871Z,5.33
2018-09-29T13:57:35.673Z,4.37
2018-09-29T14:00:04.588Z,3.62
2018-09-29T14:02:33.369Z,4.42
2018-09-29T14:05:02.273Z,5.08
2018-09-29T14:07:31.761Z,2.92
2018-09-29T14:10:00.672Z,4.55
2018-09-29T14:12:29.450Z,4.75
2018-09-29T14:14:58.240Z,3.45
2018-09-29T14:17:27.077Z,3.80
2018-09-29T14:19:55.902Z,4.10
2018-09-29T14:22:24.787Z,6.22
2018-09-29T14:24:53.670Z,3.55
2018-09-29T14:27:22.723Z,4.50
2018-09-29T14:29:51.520Z,4.80
2018-09-29T14:32:20.488Z,2.58
2018-09-29T14:34:49.240Z,5.55
2018-09-29T14:37:18.298Z,3.58
2018-09-29T14:39:47.041Z,3.02
2018-09-29T14:42:15.891Z,3.80
2018-09-29T14:44:44.851Z,3.33
2018-09-29T14:47:13.810Z,3.62
2018-09-29T14:49:42.601Z,2.35
2018-09-29T14:52:11.446Z,2.97
2018-09-29T14:54:40.229Z,3.47
2018-09-29T14:57:09.228Z,4.40
2018-09-29T14:59:38.203Z,6.50
2018-09-29T15:02:07.925Z,3.90
2018-09-29T15:04:37.469Z,2.17
2018-09-29T15:07:06.489Z,5.33
2018-09-29T15:09:35.628Z,2.07
2018-09-29T15:12:04.655Z,2.13
2018-09-29T15:14:34.384Z,3.23
2018-09-29T15:17:03.477Z,3.93
2018-09-29T15:19:32.711Z,4.03
2018-09-29T15:22:02.629Z,3.03
2018-09-29T15:24:31.923Z,2.77
2018-09-29T15:27:01.143Z,4.37
2018-09-29T15:29:30.239Z,2.80
2018-09-29T15:31:59.920Z,3.37
2018-09-29T15:34:29.075Z,1.97
2018-09-29T15:36:57.898Z,3.37
2018-09-29T15:39:26.700Z,3.43
2018-09-29T15:41:55.759Z,1.90
2018-09-29T15:44:24.549Z,3.73
2018-09-29T15:46:53.290Z,4.37
2018-09-29T15:49:22.074Z,3.57
2018-09-29T15:51:50.884Z,3.47
2018-09-29T15:54:19.845Z,2.73
2018-09-29T15:56:48.841Z,2.97
2018-09-29T15:59:17.775Z,2.60
2018-09-29T16:01:46.540Z,3.50
2018-09-29T16:04:15.488Z,5.87
2018-09-29T16:06:44.350Z,3.73
2018-09-29T16:09:13.155Z,6.30
2018-09-29T16:11:41.923Z,5.00
2018-09-29T16:14:10.769Z,4.37
2018-09-29T16:16:39.517Z,4.37
2018-09-29T16:19:08.308Z,5.13
2018-09-29T16:21:37.059Z,3.17
2018-09-29T16:24:05.867Z,2.73
2018-09-29T16:26:34.951Z,2.67
2018-09-29T16:29:03.746Z,3.50
2018-09-29T16:31:32.652Z,4.43
2018-09-29T16:34:01.539Z,3.00
2018-09-29T16:36:30.329Z,4.03
2018-09-29T16:38:59.134Z,2.43
2018-09-29T16:41:27.887Z,2.73
2018-09-29T16:43:56.742Z,3.57
2018-09-29T16:46:25.636Z,4.73
2018-09-29T16:48:54.599Z,2.80
2018-09-29T16:51:23.405Z,4.00
2018-09-29T16:53:52.354Z,4.63
2018-09-29T16:56:21.112Z,1.70
2018-09-29T16:58:49.950Z,2.43
2018-09-29T17:01:18.809Z,3.63
2018-09-29T17:03:47.528Z,3.37
2018-09-29T17:06:22.806Z,4.97
2018-09-29T17:08:58.137Z,5.57
2018-09-29T17:11:26.909Z,4.90
2018-09-29T17:13:55.705Z,8.00
2018-09-29T17:16:24.594Z,5.93
2018-09-29T17:18:53.448Z,5.43
2018-09-29T17:21:22.185Z,5.97
2018-09-29T17:23:51.110Z,4.63
2018-09-29T17:26:19.970Z,8.03
2018-09-29T17:28:48.739Z,6.63
2018-09-29T17:31:17.706Z,4.83
2018-09-29T17:33:46.499Z,6.07
2018-09-29T17:36:15.972Z,3.43
2018-09-29T17:38:44.727Z,5.43
2018-09-29T17:41:14.110Z,5.03
2018-09-29T17:43:42.901Z,4.53
2018-09-29T17:46:11.700Z,3.93
2018-09-29T17:48:40.433Z,3.53
2018-09-29T17:51:09.324Z,3.97
2018-09-29T17:53:38.347Z,6.80
2018-09-29T17:56:07.249Z,5.97
2018-09-29T17:58:36.120Z,4.63
2018-09-29T18:01:05.017Z,6.87
2018-09-29T18:03:33.910Z,5.00
2018-09-29T18:06:02.679Z,4.27
2018-09-29T18:08:31.498Z,3.83
2018-09-29T18:11:00.478Z,4.77
2018-09-29T18:13:29.280Z,5.03
2018-09-29T18:15:58.107Z,5.20
2018-09-29T18:18:26.857Z,7.57
2018-09-29T18:20:55.833Z,8.90
2018-09-29T18:23:24.829Z,3.43
2018-09-29T18:25:53.650Z,7.03
2018-09-29T18:28:22.636Z,6.93
2018-09-29T18:30:51.469Z,6.77
2018-09-29T18:33:20.250Z,5.77
2018-09-29T18:35:49.378Z,7.47
2018-09-29T18:38:18.069Z,4.70
2018-09-29T18:40:47.030Z,6.33
2018-09-29T18:43:15.779Z,6.00
2018-09-29T18:45:44.618Z,6.90
2018-09-29T18:48:13.410Z,5.73
2018-09-29T18:50:42.443Z,4.20
2018-09-29T18:53:11.264Z,6.87
2018-09-29T18:55:40.098Z,6.20
2018-09-29T18:58:08.869Z,7.47
2018-09-29T19:00:37.705Z,8.33
2018-09-29T19:03:06.864Z,6.80
2018-09-29T19:05:35.697Z,9.37
2018-09-29T19:08:04.586Z,5.47
2018-09-29T19:10:33.319Z,5.60
2018-09-29T19:13:02.282Z,5.67
2018-09-29T19:15:31.095Z,5.83
2018-09-29T19:17:59.899Z,8.37
2018-09-29T19:20:28.799Z,10.17
2018-09-29T19:22:57.628Z,8.50
2018-09-29T19:25:26.455Z,8.87
2018-09-29T19:27:55.221Z,7.83
2018-09-29T19:30:24.208Z,6.57
2018-09-29T19:32:53.001Z,5.40
2018-09-29T19:35:21.786Z,8.40
2018-09-29T19:37:50.688Z,8.87
2018-09-29T19:40:19.443Z,9.20
2018-09-29T19:42:48.279Z,6.03
2018-09-29T19:45:17.198Z,10.03
2018-09-29T19:47:46.010Z,7.20
2018-09-29T19:50:15.809Z,7.23
2018-09-29T19:52:44.527Z,7.00
2018-09-29T19:55:13.244Z,8.47
2018-09-29T19:57:42.227Z,5.03
2018-09-29T20:00:11.001Z,7.67
2018-09-29T20:02:39.796Z,7.57
2018-09-29T20:05:08.743Z,6.97
2018-09-29T20:07:37.677Z,8.43
2018-09-29T20:10:06.513Z,8.13
2018-09-29T20:12:35.257Z,7.50
2018-09-29T20:15:04.227Z,7.37
2018-09-29T20:17:33.140Z,7.20
2018-09-29T20:20:02.162Z,5.30
2018-09-29T20:22:31.030Z,7.37
2018-09-29T20:24:59.775Z,8.73
2018-09-29T20:27:28.759Z,7.97
2018-09-29T20:29:58.393Z,8.57
2018-09-29T20:32:27.127Z,6.23
2018-09-29T20:34:55.870Z,5.37
2018-09-29T20:37:24.717Z,7.80
2018-09-29T20:39:54.349Z,8.20
2018-09-29T20:42:23.284Z,5.90
2018-09-29T20:44:52.125Z,6.50
2018-09-29T20:47:20.941Z,6.47
2018-09-29T20:49:49.779Z,5.73
2018-09-29T20:52:18.773Z,9.23
2018-09-29T20:54:47.572Z,8.70
2018-09-29T20:57:16.362Z,7.93
2018-09-29T20:59:45.230Z,8.33
2018-09-29T21:02:14.071Z,10.57
2018-09-29T21:04:42.970Z,7.97
2018-09-29T21:07:11.867Z,5.23
2018-09-29T21:09:40.798Z,7.00
2018-09-29T21:12:09.910Z,8.53
2018-09-29T21:14:38.705Z,10.10
2018-09-29T21:17:07.404Z,6.50
2018-09-29T21:19:36.188Z,8.37
2018-09-29T21:22:04.979Z,9.13
2018-09-29T21:24:33.739Z,6.20
2018-09-29T21:27:02.491Z,7.83
2018-09-29T21:29:31.255Z,8.40
2018-09-29T21:31:59.994Z,7.27
2018-09-29T21:34:28.935Z,11.27
2018-09-29T21:36:57.709Z,6.37
2018-09-29T21:39:26.632Z,7.40
2018-09-29T21:41:55.392Z,7.07
2018-09-29T21:44:24.220Z,9.07
2018-09-29T21:46:53.007Z,7.90
2018-09-29T21:49:21.784Z,6.93
2018-09-29T21:51:50.630Z,7.50
2018-09-29T21:54:19.471Z,9.73
2018-09-29T21:56:48.486Z,7.13
2018-09-29T21:59:17.216Z,9.10
2018-09-29T22:01:45.960Z,10.03
2018-09-29T22:04:14.716Z,13.17
2018-09-29T22:06:43.566Z,9.97
2018-09-29T22:09:16.531Z,10.40
2018-09-29T22:11:45.262Z,10.40
2018-09-29T22:14:14.033Z,10.53
2018-09-29T22:16:42.831Z,6.90
2018-09-29T22:19:11.639Z,6.70
2018-09-29T22:21:40.543Z,6.07
2018-09-29T22:24:09.733Z,8.43
2018-09-29T22:26:38.587Z,6.30
2018-09-29T22:29:07.429Z,6.93
2018-09-29T22:31:36.174Z,8.90
2018-09-29T22:34:04.880Z,7.37
2018-09-29T22:36:33.703Z,9.90
2018-09-29T22:39:02.587Z,8.90
2018-09-29T22:41:31.399Z,8.10
2018-09-29T22:44:00.126Z,6.00
2018-09-29T22:46:28.941Z,6.80
2018-09-29T22:48:57.694Z,7.27
2018-09-29T22:51:26.459Z,8.87
2018-09-29T22:53:55.289Z,6.53
2018-09-29T22:56:24.169Z,7.03
2018-09-29T22:58:52.942Z,6.43
2018-09-29T23:01:21.709Z,7.03
2018-09-29T23:03:50.625Z,10.13
2018-09-29T23:06:19.389Z,7.57
2018-09-29T23:08:48.219Z,6.60
2018-09-29T23:11:16.966Z,6.27
2018-09-29T23:13:45.729Z,8.30
2018-09-29T23:16:14.613Z,9.77
2018-09-29T23:18:43.432Z,6.03
2018-09-29T23:21:12.257Z,5.57
2018-09-29T23:23:41.145Z,5.37
2018-09-29T23:26:10.069Z,6.63
2018-09-29T23:28:38.887Z,7.57
2018-09-29T23:31:07.709Z,7.00
2018-09-29T23:33:36.509Z,6.93
2018-09-29T23:36:05.322Z,5.20
2018-09-29T23:38:34.060Z,6.80
2018-09-29T23:41:02.884Z,6.90
2018-09-29T23:43:31.701Z,7.73
2018-09-29T23:46:00.798Z,7.53
2018-09-29T23:48:29.519Z,8.70
2018-09-29T23:50:58.268Z,8.67
2018-09-29T23:53:27.214Z,10.27
2018-09-29T23:55:56.005Z,6.57
2018-09-29T23:58:24.838Z,7.67
